Caneyville, KY (42721)

10:26 AM CST on December 04, 2016 (GMT -0600)
Peth (Bratcher Farms) | | Change Station

Elev 554 ft 37.40 °N, 86.46 °W | Updated 21 minutes ago

Overcast
Overcast
45.2 °F
Feels Like 45 °F
N
0.0
Wind Variable Wind from East

Today
High -- | Low -- °F
--% Chance of Precip.
Yesterday
High -- | Low -- °F
Precip. -- in
Pressure 30.06 in
Visibility 10.0 miles
Clouds Mostly Cloudy 1300 ft
Mostly Cloudy 2000 ft
Overcast 3000 ft
Windchill 45 °F
Dew Point 43 °F
Humidity 91%
Rainfall 0.03 in
Snow Depth Not available.
6:44 AM 4:27 PM
Waxing Crescent, 23% visible
SPECI KBWG 041613Z AUTO 14007KT 10SM BKN013 BKN020 OVC030 08/06 A3006 RMK AO2 RAE06 P0000 T00780061
Pressure 30.06 in
Visibility 10.0 miles
Clouds Mostly Cloudy 1300 ft
Mostly Cloudy 2000 ft
Overcast 3000 ft
Windchill 45 °F
Dew Point 43 °F
Humidity 91%
Rainfall 0.03 in
Snow Depth Not available.
6:44 AM 4:27 PM
Waxing Crescent, 23% visible
SPECI KBWG 041613Z AUTO 14007KT 10SM BKN013 BKN020 OVC030 08/06 A3006 RMK AO2 RAE06 P0000 T00780061

10-Day Weather Forecast

Almanac

Astronomy

Dec. 04, 2016 Rise Set
Actual Time
Civil Twilight
Nautical Twilight
Astronomical Twilight
Moon
Length of Visible Light
Length of Day
Tomorrow will be .
, % of the Moon is Illuminated

Today's Extremes

State Highs State Lows

Community

WunderPhotos

Upload Photos

1,955,617 photos uploaded!

WunderBlog® & News

Nearby

Air Quality

  Air Quality AQ Index Pollutant
Not available.

Snow Depth

Station Depth Elevation

Earthquake Activity

City Distance Mag. Time & Date
Minimum magnitude displayed is 2.5.

Coastal Water Temperatures

Place Temperature

Stations

Nearby Weather Stations

Station Location Temp. Windchill Dew Point Humidity Wind Precip. Elev Updated Type
                   

Watches & Warnings

There are currently no watches in effect.